Time;durP1;ratioP1;P1;durP2;ratioP2;P2;SDS_P1;SDS_P2;PMS_P1;PMS_P2;Temp;Humidity;BMP_temperature;BMP_pressure;BME280_temperature;BME280_humidity;BME280_pressure;Samples;Min_cycle;Max_cycle;Signal;HPM_P1;HPM_P2
2021/01/25 00:01:04;;;;;;;4.38;1.70;;;;;;;25.21;32.95;96615.94;4990408;28;20387;-64
2021/01/25 00:03:31;;;;;;;5.88;1.88;;;;;;;25.24;32.80;96609.34;4992639;28;20260;-60
2021/01/25 00:05:57;;;;;;;3.97;1.63;;;;;;;25.23;32.50;96613.06;4994115;28;20235;-61
2021/01/25 00:08:23;;;;;;;3.92;2.08;;;;;;;25.12;32.45;96619.97;4993082;28;20288;-62
2021/01/25 00:10:50;;;;;;;3.35;1.60;;;;;;;24.96;33.11;96612.53;4990529;28;20239;-61
2021/01/25 00:13:16;;;;;;;4.43;1.50;;;;;;;25.01;33.17;96602.78;4990677;28;20292;-62
2021/01/25 00:15:42;;;;;;;2.75;1.65;;;;;;;25.10;32.94;96598.00;4991684;28;20608;-61
2021/01/25 00:18:08;;;;;;;3.08;1.67;;;;;;;24.96;32.71;96602.63;4989616;28;20264;-61
2021/01/25 00:20:35;;;;;;;3.03;1.55;;;;;;;25.00;32.64;96587.81;4989349;28;20267;-62
2021/01/25 00:23:01;;;;;;;3.35;1.80;;;;;;;24.86;33.46;96587.09;4992306;28;20296;-62
2021/01/25 00:25:28;;;;;;;4.25;1.75;;;;;;;24.91;33.27;96583.78;4991882;28;20300;-62
2021/01/25 00:27:54;;;;;;;2.65;1.40;;;;;;;24.85;33.44;96584.69;4992278;28;20291;-57
2021/01/25 00:30:20;;;;;;;4.32;1.35;;;;;;;24.80;32.54;96574.66;4990280;28;20589;-58
2021/01/25 00:32:47;;;;;;;4.55;1.30;;;;;;;24.82;33.71;96575.25;4989493;28;20288;-61
2021/01/25 00:35:13;;;;;;;3.47;1.70;;;;;;;24.86;32.92;96578.28;4990904;28;20247;-62
2021/01/25 00:37:40;;;;;;;2.85;1.48;;;;;;;24.85;32.68;96565.97;4990077;28;20212;-58
2021/01/25 00:40:07;;;;;;;4.57;1.80;;;;;;;24.78;32.58;96575.91;4987842;28;20267;-62
2021/01/25 00:42:33;;;;;;;2.70;1.60;;;;;;;24.69;33.72;96578.84;4989184;28;20297;-62
2021/01/25 00:45:00;;;;;;;3.13;1.50;;;;;;;24.74;33.67;96568.31;4989299;28;20668;-57
2021/01/25 00:47:26;;;;;;;4.13;1.90;;;;;;;24.78;33.61;96571.38;4988210;28;20224;-61
2021/01/25 00:49:52;;;;;;;5.45;1.52;;;;;;;24.71;33.72;96571.47;4989050;28;20221;-58
2021/01/25 00:52:18;;;;;;;2.38;1.50;;;;;;;24.70;33.17;96569.00;4989771;28;20228;-61
2021/01/25 00:54:45;;;;;;;3.15;1.75;;;;;;;24.73;33.58;96565.88;4989928;28;20263;-61
2021/01/25 00:57:11;;;;;;;2.15;1.27;;;;;;;24.70;33.40;96563.66;4991280;28;20803;-62
2021/01/25 00:59:37;;;;;;;3.00;1.40;;;;;;;24.66;33.59;96570.47;4989592;28;20233;-62
2021/01/25 01:02:03;;;;;;;2.05;1.33;;;;;;;24.65;32.78;96568.84;4989686;28;20299;-60
2021/01/25 01:04:29;;;;;;;3.72;1.35;;;;;;;24.67;33.33;96564.09;4989961;28;20209;-62
2021/01/25 01:06:55;;;;;;;3.25;1.55;;;;;;;24.66;33.27;96552.56;4989932;28;20213;-62
2021/01/25 01:09:21;;;;;;;3.50;1.92;;;;;;;24.63;32.98;96561.06;4991045;28;20340;-61
2021/01/25 01:11:48;;;;;;;3.13;1.42;;;;;;;24.70;33.07;96556.44;4990956;28;20224;-61
2021/01/25 01:14:14;;;;;;;4.53;1.50;;;;;;;24.66;33.49;96559.78;4990778;28;20213;-61
2021/01/25 01:16:41;;;;;;;2.97;1.50;;;;;;;24.66;32.92;96560.59;4989866;28;20216;-61
2021/01/25 01:19:07;;;;;;;2.60;1.60;;;;;;;24.71;32.84;96558.09;4990008;28;20730;-62
2021/01/25 01:21:34;;;;;;;2.55;1.55;;;;;;;24.72;33.82;96565.06;4990435;28;20308;-60
2021/01/25 01:24:01;;;;;;;4.28;1.95;;;;;;;24.71;33.75;96571.47;4990716;28;20205;-61
2021/01/25 01:26:27;;;;;;;1.88;1.15;;;;;;;24.71;32.94;96555.41;4991514;28;20305;-62
2021/01/25 01:28:54;;;;;;;4.60;1.50;;;;;;;24.77;33.36;96551.03;4988656;28;20665;-61
2021/01/25 01:31:21;;;;;;;3.20;1.52;;;;;;;24.67;33.49;96548.88;4988455;28;20280;-58
2021/01/25 01:33:47;;;;;;;3.47;1.55;;;;;;;24.67;34.32;96550.72;4988143;28;20560;-61
2021/01/25 01:36:13;;;;;;;3.92;1.40;;;;;;;24.67;33.52;96540.03;4988187;28;20278;-61
2021/01/25 01:38:39;;;;;;;4.25;1.50;;;;;;;24.65;33.20;96526.91;4988637;28;20205;-61
2021/01/25 01:41:05;;;;;;;4.88;1.50;;;;;;;24.69;34.17;96528.09;4989538;28;20319;-55
2021/01/25 01:43:31;;;;;;;4.00;1.55;;;;;;;24.67;33.18;96532.84;4989033;28;20292;-62
2021/01/25 01:45:58;;;;;;;4.88;1.33;;;;;;;24.62;34.15;96538.03;4988673;28;20384;-61
2021/01/25 01:48:25;;;;;;;3.92;1.30;;;;;;;24.61;33.69;96535.56;4988904;28;20339;-60
2021/01/25 01:50:52;;;;;;;3.38;1.30;;;;;;;24.68;33.74;96539.00;4989826;28;20221;-61
2021/01/25 01:53:18;;;;;;;3.33;1.58;;;;;;;24.73;33.71;96537.31;4989940;28;20292;-61
2021/01/25 01:55:45;;;;;;;4.90;1.30;;;;;;;24.70;33.78;96540.41;4990902;28;20319;-61
2021/01/25 01:58:11;;;;;;;2.97;1.55;;;;;;;24.72;32.81;96540.19;4989607;28;20211;-62
2021/01/25 02:00:38;;;;;;;2.45;1.38;;;;;;;24.79;33.04;96529.44;4989557;28;20229;-60
2021/01/25 02:03:05;;;;;;;2.50;1.50;;;;;;;24.66;34.03;96528.53;4990561;28;20708;-62
2021/01/25 02:05:31;;;;;;;2.53;1.40;;;;;;;24.66;33.63;96525.03;4990027;28;20209;-62
2021/01/25 02:07:59;;;;;;;3.75;1.30;;;;;;;24.74;33.27;96525.56;4988641;28;20287;-60
2021/01/25 02:10:27;;;;;;;2.83;1.67;;;;;;;24.68;33.47;96525.63;4991293;28;20693;-58
2021/01/25 02:12:58;;;;;;;2.45;1.35;;;;;;;24.63;32.97;96518.31;4988999;28;20209;-56
2021/01/25 02:15:25;;;;;;;4.47;1.60;;;;;;;24.64;32.82;96527.94;4990184;28;20209;-62
2021/01/25 02:17:52;;;;;;;2.75;1.50;;;;;;;24.62;32.85;96522.00;4990085;28;20223;-61
2021/01/25 02:20:26;;;;;;;4.00;1.65;;;;;;;24.52;33.45;96527.00;4989476;28;20243;-61
2021/01/25 02:23:25;;;;;;;4.43;1.95;;;;;;;24.55;33.44;96523.94;4990407;28;20201;-61
2021/01/25 02:25:56;;;;;;;4.20;1.55;;;;;;;24.50;33.98;96526.41;4991017;28;20224;-60
2021/01/25 02:28:23;;;;;;;2.60;1.38;;;;;;;24.48;33.65;96525.78;4990615;28;20296;-62
2021/01/25 02:30:50;;;;;;;2.75;1.50;;;;;;;24.52;34.01;96524.34;4988627;28;20217;-60
2021/01/25 02:33:19;;;;;;;3.55;1.40;;;;;;;24.50;33.50;96524.56;4990998;28;20228;-60
2021/01/25 02:35:46;;;;;;;2.08;1.42;;;;;;;24.57;33.06;96519.19;4990115;28;20594;-61
2021/01/25 02:38:16;;;;;;;5.57;1.40;;;;;;;24.57;32.95;96516.50;4989681;28;20580;-62
2021/01/25 02:40:46;;;;;;;2.50;1.13;;;;;;;24.50;34.06;96515.72;4989567;28;20290;-62
2021/01/25 02:43:14;;;;;;;3.28;1.70;;;;;;;24.35;34.34;96518.75;4990945;28;20205;-61
2021/01/25 02:45:42;;;;;;;2.53;1.33;;;;;;;24.33;33.70;96521.63;4989915;28;20220;-61
2021/01/25 02:48:09;;;;;;;2.70;1.20;;;;;;;24.42;33.36;96522.16;4988370;28;20304;-62
2021/01/25 02:50:35;;;;;;;2.25;1.58;;;;;;;24.50;34.34;96513.06;4989382;28;20403;-62
2021/01/25 02:53:01;;;;;;;2.70;1.40;;;;;;;24.64;34.04;96514.56;4988153;28;20296;-58
2021/01/25 02:55:27;;;;;;;2.50;1.20;;;;;;;24.69;32.88;96506.72;4990375;28;20280;-61
2021/01/25 02:57:55;;;;;;;5.43;1.30;;;;;;;24.70;33.19;96513.69;4990436;28;20210;-61
2021/01/25 03:00:22;;;;;;;3.13;1.35;;;;;;;24.71;33.50;96514.50;4990418;28;20237;-62
2021/01/25 03:02:49;;;;;;;3.63;1.20;;;;;;;24.74;33.57;96520.22;4990301;28;20662;-62
2021/01/25 03:05:15;;;;;;;2.60;1.20;;;;;;;24.67;33.80;96522.16;4987950;28;20209;-61
2021/01/25 03:07:43;;;;;;;2.35;1.20;;;;;;;24.78;33.69;96520.63;4989595;28;20292;-62
2021/01/25 03:10:10;;;;;;;2.47;1.45;;;;;;;24.67;33.74;96529.34;4991775;28;20221;-62
2021/01/25 03:12:37;;;;;;;2.70;1.40;;;;;;;24.67;32.89;96535.50;4993214;28;20399;-60
2021/01/25 03:15:05;;;;;;;2.58;1.30;;;;;;;24.81;32.93;96540.72;4992164;28;20227;-60
2021/01/25 03:17:31;;;;;;;2.10;1.30;;;;;;;24.81;33.04;96546.06;4992427;28;20205;-60
2021/01/25 03:19:58;;;;;;;2.45;1.20;;;;;;;24.79;33.54;96545.47;4992217;28;20225;-61
2021/01/25 03:22:24;;;;;;;2.55;1.33;;;;;;;24.82;33.28;96550.38;4991789;28;20227;-61
2021/01/25 03:24:50;;;;;;;3.05;1.67;;;;;;;24.84;32.54;96553.63;4991423;28;20208;-62
2021/01/25 03:27:16;;;;;;;2.70;1.20;;;;;;;24.68;33.01;96558.53;4991573;28;20205;-60
2021/01/25 03:29:43;;;;;;;2.95;1.48;;;;;;;24.76;33.67;96562.75;4992052;28;20238;-62
2021/01/25 03:32:09;;;;;;;3.60;1.65;;;;;;;24.81;33.32;96551.41;4991364;28;20201;-62
2021/01/25 03:34:35;;;;;;;2.13;1.13;;;;;;;24.63;33.85;96566.41;4992133;28;20206;-62
2021/01/25 03:37:02;;;;;;;5.88;1.10;;;;;;;24.66;33.71;96562.44;4992114;28;20242;-62
2021/01/25 03:39:28;;;;;;;3.92;1.30;;;;;;;24.70;32.90;96559.13;4992223;28;20209;-60
2021/01/25 03:41:54;;;;;;;1.60;1.10;;;;;;;24.66;33.97;96559.78;4991161;28;20213;-61
2021/01/25 03:44:20;;;;;;;2.50;1.30;;;;;;;24.66;33.42;96559.78;4992050;28;20697;-61
2021/01/25 03:46:46;;;;;;;2.60;1.50;;;;;;;24.61;33.65;96568.44;4991413;28;20205;-61
2021/01/25 03:49:14;;;;;;;1.83;1.33;;;;;;;24.61;33.12;96563.09;4990138;28;20732;-61
2021/01/25 03:51:40;;;;;;;2.92;1.58;;;;;;;24.62;34.03;96555.94;4990999;28;20233;-62
2021/01/25 03:54:11;;;;;;;2.28;1.27;;;;;;;24.62;33.13;96559.41;4990911;28;20717;-62
2021/01/25 03:56:38;;;;;;;2.63;1.48;;;;;;;24.62;34.11;96559.41;4992823;28;20289;-62
2021/01/25 03:59:04;;;;;;;4.95;1.52;;;;;;;24.51;33.87;96552.88;4992249;28;20229;-62
2021/01/25 04:01:30;;;;;;;4.38;1.60;;;;;;;24.48;34.24;96557.84;4991820;28;20650;-62
2021/01/25 04:03:56;;;;;;;2.25;1.30;;;;;;;24.57;34.12;96561.91;4992826;28;20296;-62
2021/01/25 04:06:22;;;;;;;4.78;1.35;;;;;;;24.72;33.46;96554.38;4990768;28;20267;-62
2021/01/25 04:08:48;;;;;;;2.33;1.30;;;;;;;24.54;34.23;96562.31;4991828;28;20284;-62
2021/01/25 04:11:16;;;;;;;2.03;1.33;;;;;;;24.65;34.18;96561.63;4990201;28;20217;-62
2021/01/25 04:13:42;;;;;;;3.20;1.45;;;;;;;24.66;33.07;96563.25;4991662;28;20213;-61
2021/01/25 04:16:08;;;;;;;1.95;1.40;;;;;;;24.61;33.82;96565.78;4990677;28;20269;-62
2021/01/25 04:18:34;;;;;;;5.30;1.40;;;;;;;24.60;33.77;96566.84;4988804;28;20213;-62
2021/01/25 04:21:00;;;;;;;2.90;1.35;;;;;;;24.63;33.35;96555.72;4990689;28;20233;-55
2021/01/25 04:23:26;;;;;;;2.17;1.10;;;;;;;24.51;33.34;96568.09;4991732;28;20232;-62
2021/01/25 04:25:52;;;;;;;2.63;1.40;;;;;;;24.52;34.19;96570.56;4991753;28;20236;-63
2021/01/25 04:28:19;;;;;;;2.53;1.17;;;;;;;24.55;33.36;96564.00;4989325;28;20636;-57
2021/01/25 04:30:45;;;;;;;2.72;1.10;;;;;;;24.59;34.07;96562.50;4991046;28;20225;-62
2021/01/25 04:33:12;;;;;;;2.08;1.10;;;;;;;24.62;33.56;96570.09;4991324;28;20211;-61
2021/01/25 04:35:39;;;;;;;2.00;1.02;;;;;;;24.52;34.00;96565.22;4990086;28;20285;-59
2021/01/25 04:38:06;;;;;;;1.40;1.30;;;;;;;24.55;33.78;96564.81;4991769;28;20206;-61
2021/01/25 04:40:32;;;;;;;2.35;1.25;;;;;;;24.45;34.06;96563.63;4991390;28;20229;-61
2021/01/25 04:43:00;;;;;;;1.55;1.10;;;;;;;24.47;33.39;96561.56;4990953;28;20197;-62
2021/01/25 04:45:27;;;;;;;2.70;1.10;;;;;;;24.49;33.54;96562.97;4991711;28;20215;-62
2021/01/25 04:47:55;;;;;;;2.78;1.20;;;;;;;24.58;34.19;96558.22;4989729;28;20217;-62
2021/01/25 04:50:22;;;;;;;3.25;1.50;;;;;;;24.63;33.71;96558.38;4991248;28;20601;-62
2021/01/25 04:52:49;;;;;;;4.03;1.55;;;;;;;24.57;34.08;96561.91;4990739;28;20255;-62
2021/01/25 04:55:16;;;;;;;4.70;1.25;;;;;;;24.75;33.83;96567.28;4989549;28;20205;-62
2021/01/25 04:57:43;;;;;;;4.10;1.10;;;;;;;24.85;33.76;96558.75;4991043;28;20209;-62
2021/01/25 05:00:11;;;;;;;1.70;1.30;;;;;;;24.77;32.86;96558.25;4989736;28;20229;-61
2021/01/25 05:02:40;;;;;;;4.20;1.88;;;;;;;24.79;33.62;96569.53;4989695;28;20201;-60
2021/01/25 05:05:08;;;;;;;3.05;1.20;;;;;;;24.88;33.78;96568.19;4989967;28;20720;-60
2021/01/25 05:07:34;;;;;;;3.22;1.52;;;;;;;24.94;32.93;96568.09;4991147;28;20205;-61
2021/01/25 05:10:01;;;;;;;5.00;1.25;;;;;;;24.86;32.96;96563.06;4989655;28;20247;-61
2021/01/25 05:12:40;;;;;;;1.90;1.20;;;;;;;24.82;33.41;96574.44;4990406;28;20209;-62
2021/01/25 05:15:07;;;;;;;1.63;1.20;;;;;;;24.92;33.70;96569.38;4992483;28;20201;-62
2021/01/25 05:17:34;;;;;;;2.15;1.23;;;;;;;24.93;32.79;96571.84;4990717;28;20742;-62
2021/01/25 05:20:01;;;;;;;2.70;1.17;;;;;;;24.83;33.82;96570.69;4989602;28;20364;-62
2021/01/25 05:22:28;;;;;;;2.08;1.50;;;;;;;24.89;33.66;96575.16;4988727;28;20210;-61
2021/01/25 05:24:54;;;;;;;3.05;1.55;;;;;;;24.92;32.77;96572.88;4990095;28;20240;-58
2021/01/25 05:27:24;;;;;;;1.67;1.20;;;;;;;24.93;32.77;96571.00;4989339;28;20252;-61
2021/01/25 05:29:51;;;;;;;2.15;1.40;;;;;;;24.91;33.06;96576.59;4990050;28;20225;-60
2021/01/25 05:32:18;;;;;;;2.80;1.10;;;;;;;24.96;32.79;96583.94;4990892;28;20316;-62
2021/01/25 05:34:46;;;;;;;2.85;1.20;;;;;;;24.93;33.80;96573.69;4991763;28;20205;-62
2021/01/25 05:37:16;;;;;;;2.38;1.33;;;;;;;24.96;33.29;96575.91;4988518;28;20245;-61
2021/01/25 05:39:46;;;;;;;2.60;1.40;;;;;;;25.01;33.44;96573.38;4990647;28;20278;-62
2021/01/25 05:42:13;;;;;;;1.77;1.20;;;;;;;25.00;33.51;96576.31;4990889;28;20216;-61
2021/01/25 05:44:40;;;;;;;2.63;1.27;;;;;;;25.08;32.96;96579.50;4989778;28;20265;-62
2021/01/25 05:47:07;;;;;;;1.48;1.00;;;;;;;25.00;32.64;96578.97;4989087;28;20649;-62
2021/01/25 05:49:33;;;;;;;2.90;1.25;;;;;;;25.00;33.51;96581.66;4988076;28;20292;-57
2021/01/25 05:52:00;;;;;;;2.08;1.10;;;;;;;25.00;32.76;96576.31;4989368;28;20216;-56
2021/01/25 05:54:27;;;;;;;2.25;1.20;;;;;;;24.97;33.28;96582.09;4990775;28;20209;-61
2021/01/25 05:56:54;;;;;;;3.58;1.10;;;;;;;24.95;33.57;96593.00;4990267;28;20253;-61
2021/01/25 05:59:21;;;;;;;2.53;1.30;;;;;;;25.06;32.45;96592.28;4990371;28;20343;-57
2021/01/25 06:01:47;;;;;;;1.92;1.20;;;;;;;24.93;32.59;96589.72;4988969;28;20316;-62
2021/01/25 06:04:16;;;;;;;2.97;1.30;;;;;;;24.97;33.60;96598.13;4990756;28;20296;-61
2021/01/25 06:06:47;;;;;;;1.45;1.08;;;;;;;24.94;33.50;96599.38;4990380;28;20205;-61
2021/01/25 06:09:20;;;;;;;2.28;1.20;;;;;;;24.97;32.44;96593.59;4989263;28;20307;-60
2021/01/25 06:11:48;;;;;;;1.77;1.13;;;;;;;25.06;32.89;96588.75;4990397;28;20348;-55
2021/01/25 06:14:21;;;;;;;3.17;1.15;;;;;;;25.00;32.10;96590.47;4989660;28;20206;-61
2021/01/25 06:16:50;;;;;;;3.88;1.38;;;;;;;25.01;32.56;96600.13;4990717;28;20201;-58
2021/01/25 06:19:20;;;;;;;4.47;1.30;;;;;;;24.97;32.75;96598.13;4988880;28;20671;-61
2021/01/25 06:21:48;;;;;;;2.63;1.23;;;;;;;24.99;32.18;96609.41;4989328;28;20233;-61
2021/01/25 06:24:17;;;;;;;5.45;1.35;;;;;;;25.04;31.76;96610.38;4989044;28;20684;-60
2021/01/25 06:26:48;;;;;;;5.20;1.30;;;;;;;25.05;32.53;96608.53;4988509;28;20241;-63
2021/01/25 06:29:17;;;;;;;13.73;1.92;;;;;;;25.09;31.89;96613.19;4989594;28;20201;-64
2021/01/25 06:31:45;;;;;;;12.15;2.55;;;;;;;25.10;32.70;96620.19;4991540;28;20236;-65
2021/01/25 06:34:12;;;;;;;13.30;3.25;;;;;;;25.10;32.83;96614.03;4989268;28;20236;-65
2021/01/25 06:36:40;;;;;;;10.93;2.25;;;;;;;25.12;33.21;96610.09;4989742;28;20198;-64
2021/01/25 06:39:07;;;;;;;11.45;2.13;;;;;;;25.34;32.62;96615.03;4989955;28;20333;-64
2021/01/25 06:41:37;;;;;;;9.57;2.63;;;;;;;25.51;32.20;96614.41;4989482;28;20240;-65
2021/01/25 06:44:06;;;;;;;12.02;2.28;;;;;;;25.25;32.56;96621.69;4992097;28;20205;-64
2021/01/25 06:46:35;;;;;;;17.02;2.13;;;;;;;25.35;31.98;96630.03;4994102;28;20343;-62
2021/01/25 06:49:02;;;;;;;8.82;1.50;;;;;;;25.06;31.13;96629.72;4995351;28;20247;-66
2021/01/25 06:51:29;;;;;;;7.75;1.77;;;;;;;25.01;31.48;96640.22;4992404;28;20225;-68
2021/01/25 06:53:58;;;;;;;8.60;2.22;;;;;;;24.98;31.48;96635.34;4994275;28;20229;-67
2021/01/25 06:56:24;;;;;;;11.70;2.10;;;;;;;25.05;30.96;96646.78;4994382;28;20288;-66
2021/01/25 06:58:51;;;;;;;7.80;1.92;;;;;;;25.07;31.26;96641.22;4991428;28;20228;-67
2021/01/25 07:01:20;;;;;;;8.85;1.77;;;;;;;25.03;32.09;96645.34;4993173;28;20321;-66
2021/01/25 07:03:51;;;;;;;8.23;1.70;;;;;;;25.07;32.13;96650.03;4993121;28;20695;-67
2021/01/25 07:06:17;;;;;;;6.55;1.60;;;;;;;25.14;31.53;96651.84;4994426;28;20207;-66
2021/01/25 07:08:54;;;;;;;7.50;1.55;;;;;;;25.08;31.95;96654.34;4992314;28;20208;-67
2021/01/25 07:11:22;;;;;;;13.40;1.77;;;;;;;25.29;31.15;96661.16;4993878;28;20260;-67
2021/01/25 07:13:49;;;;;;;8.00;1.88;;;;;;;25.30;31.99;96668.16;4992420;28;20300;-66
2021/01/25 07:16:17;;;;;;;12.10;2.47;;;;;;;25.37;31.74;96673.44;4993650;28;20201;-67
2021/01/25 07:18:44;;;;;;;11.85;1.98;;;;;;;25.22;33.51;96671.06;4992589;28;20232;-68
2021/01/25 07:21:13;;;;;;;15.65;2.53;;;;;;;25.29;33.20;96673.72;4991249;28;20644;-69
2021/01/25 07:23:42;;;;;;;14.65;2.10;;;;;;;25.38;33.20;96676.91;4993221;28;20229;-68
2021/01/25 07:26:11;;;;;;;12.75;2.75;;;;;;;25.33;33.10;96677.59;4993594;28;20288;-69
2021/01/25 07:28:38;;;;;;;15.43;2.30;;;;;;;25.26;33.28;96682.16;4993747;28;20205;-68
2021/01/25 07:31:05;;;;;;;5.65;1.35;;;;;;;25.24;33.15;96689.56;4993011;28;20226;-69
2021/01/25 07:33:31;;;;;;;16.40;2.10;;;;;;;25.21;32.83;96690.03;4992648;28;20201;-69
2021/01/25 07:35:59;;;;;;;10.07;1.88;;;;;;;25.15;32.57;96689.06;4992867;28;20289;-69
2021/01/25 07:38:28;;;;;;;7.25;1.80;;;;;;;25.16;32.27;96689.88;4992116;28;20599;-68
2021/01/25 07:40:57;;;;;;;7.88;1.95;;;;;;;25.17;32.74;96704.88;4993257;28;20228;-67
2021/01/25 07:43:25;;;;;;;10.00;2.00;;;;;;;25.20;32.65;96696.44;4993665;28;20621;-69
2021/01/25 07:45:54;;;;;;;6.18;1.60;;;;;;;25.17;33.02;96702.22;4991713;28;20260;-71
2021/01/25 07:48:21;;;;;;;6.78;2.00;;;;;;;24.97;32.69;96705.88;4992904;28;20300;-68
2021/01/25 07:50:54;;;;;;;8.57;1.83;;;;;;;24.89;33.14;96708.81;4990862;28;20256;-69
2021/01/25 07:53:21;;;;;;;11.30;1.92;;;;;;;24.98;33.44;96704.84;4992993;28;20233;-67
2021/01/25 07:55:47;;;;;;;5.60;1.65;;;;;;;24.96;33.77;96714.09;4990443;28;20280;-68
2021/01/25 07:58:13;;;;;;;10.60;1.80;;;;;;;25.16;32.94;96713.94;4990341;28;20728;-69
2021/01/25 08:00:40;;;;;;;8.07;2.05;;;;;;;25.14;33.10;96714.16;4991605;28;20309;-69
2021/01/25 08:03:14;;;;;;;9.25;1.52;;;;;;;25.21;33.77;96716.75;4993316;28;20315;-68
2021/01/25 08:05:41;;;;;;;9.75;1.65;;;;;;;25.31;32.89;96722.44;4992880;28;20210;-69
2021/01/25 08:08:10;;;;;;;9.13;2.22;;;;;;;25.39;32.65;96718.69;4992212;28;20340;-69
2021/01/25 08:10:37;;;;;;;11.70;1.98;;;;;;;25.41;32.92;96720.06;4991949;28;20317;-68
2021/01/25 08:13:14;;;;;;;7.13;1.30;;;;;;;25.51;32.17;96732.94;4992435;28;20288;-69
2021/01/25 08:15:51;;;;;;;6.50;1.33;;;;;;;25.65;32.04;96739.00;4993184;28;20635;-69
2021/01/25 08:18:21;;;;;;;3.92;1.40;;;;;;;25.56;33.09;96738.44;4992936;28;20224;-69
2021/01/25 08:20:47;;;;;;;6.05;1.42;;;;;;;25.51;33.30;96740.16;4994163;28;20597;-69
2021/01/25 08:23:19;;;;;;;3.00;1.30;;;;;;;25.62;32.88;96744.78;4993705;28;20288;-69
2021/01/25 08:25:54;;;;;;;4.32;1.70;;;;;;;25.58;32.29;96749.78;4994881;28;20225;-69
2021/01/25 08:28:23;;;;;;;3.33;1.33;;;;;;;25.66;33.18;96751.31;4995067;28;20205;-68
2021/01/25 08:30:51;;;;;;;3.20;1.20;;;;;;;25.65;32.64;96752.38;4997014;28;20249;-69
2021/01/25 08:33:28;;;;;;;4.63;1.15;;;;;;;25.49;32.81;96762.59;4996669;28;20674;-69
2021/01/25 08:35:58;;;;;;;6.90;1.73;;;;;;;25.52;32.39;96757.88;4997429;28;20201;-69
2021/01/25 08:38:27;;;;;;;4.05;1.23;;;;;;;25.64;32.55;96756.09;5002101;28;20226;-69
2021/01/25 08:40:55;;;;;;;7.97;1.33;;;;;;;25.67;32.73;96764.47;4995115;28;20225;-68
2021/01/25 08:43:25;;;;;;;6.47;1.50;;;;;;;25.67;32.55;96764.47;4992238;28;20743;-68
2021/01/25 08:45:53;;;;;;;5.38;1.20;;;;;;;25.59;32.42;96772.00;4991926;28;20256;-68
2021/01/25 08:48:30;;;;;;;5.05;1.15;;;;;;;25.67;32.90;96777.06;4991111;28;20303;-67
2021/01/25 08:51:08;;;;;;;5.25;1.83;;;;;;;25.48;29.78;96777.03;4992649;28;20679;-69
2021/01/25 08:53:34;;;;;;;7.13;2.47;;;;;;;25.35;28.90;96779.84;4990705;28;20554;-69
2021/01/25 08:56:11;;;;;;;6.57;2.10;;;;;;;25.09;29.29;96778.97;4993730;28;20244;-69
2021/01/25 08:58:37;;;;;;;7.35;2.28;;;;;;;24.76;28.71;96784.56;4993462;28;20213;-67
2021/01/25 09:01:14;;;;;;;5.88;2.03;;;;;;;24.48;28.55;96787.56;4990345;28;20316;-70
2021/01/25 09:03:40;;;;;;;8.43;2.38;;;;;;;24.43;28.40;96785.56;4993797;28;20209;-67
2021/01/25 09:06:09;;;;;;;7.60;2.20;;;;;;;24.82;29.56;96793.59;4990591;28;20213;-69
2021/01/25 09:08:35;;;;;;;5.88;2.00;;;;;;;25.06;29.53;96795.47;4993016;28;20318;-68
2021/01/25 09:11:01;;;;;;;3.97;1.92;;;;;;;25.24;30.61;96804.59;4972399;28;20686;-68
2021/01/25 09:13:28;;;;;;;2.45;1.40;;;;;;;25.22;30.76;96804.81;4971030;28;20242;-68
2021/01/25 09:15:54;;;;;;;4.53;1.38;;;;;;;25.25;31.29;96803.56;4974141;28;20242;-68
2021/01/25 09:18:21;;;;;;;4.75;1.52;;;;;;;25.33;31.51;96805.16;4990781;28;20316;-67
2021/01/25 09:20:47;;;;;;;4.30;1.40;;;;;;;25.39;31.19;96807.78;4988932;28;20265;-67
2021/01/25 09:23:13;;;;;;;2.72;1.40;;;;;;;25.49;31.30;96821.47;4990313;28;20205;-68
2021/01/25 09:25:40;;;;;;;5.10;1.40;;;;;;;25.58;31.30;96823.88;4989050;28;20594;-70
2021/01/25 09:28:06;;;;;;;2.80;1.13;;;;;;;25.73;31.42;96821.69;4989065;28;20539;-68
2021/01/25 09:30:32;;;;;;;6.03;1.70;;;;;;;25.73;31.01;96823.50;4988552;28;20225;-67
2021/01/25 09:32:59;;;;;;;4.72;1.48;;;;;;;25.83;31.16;96827.34;4989871;28;20204;-65
2021/01/25 09:35:26;;;;;;;5.35;1.50;;;;;;;25.88;31.33;96828.53;4990196;28;20210;-69
2021/01/25 09:37:52;;;;;;;3.22;1.38;;;;;;;25.94;31.33;96843.69;4991835;28;20213;-69
2021/01/25 09:40:19;;;;;;;5.57;1.70;;;;;;;26.06;31.44;96841.94;4991661;28;20312;-69
2021/01/25 09:42:46;;;;;;;2.45;1.35;;;;;;;26.16;31.85;96847.63;4990578;28;20389;-70
2021/01/25 09:45:15;;;;;;;4.60;1.60;;;;;;;26.16;31.82;96850.31;4989757;28;20240;-68
2021/01/25 09:47:42;;;;;;;3.65;1.08;;;;;;;26.15;31.61;96851.34;4991654;28;20569;-68
2021/01/25 09:50:10;;;;;;;5.25;1.50;;;;;;;26.15;31.27;96861.25;4990331;28;20570;-67
2021/01/25 09:52:38;;;;;;;3.80;1.40;;;;;;;26.19;31.85;96863.22;4991195;28;20205;-67
2021/01/25 09:55:05;;;;;;;2.42;1.27;;;;;;;26.21;32.11;96861.16;4991177;28;20265;-66
2021/01/25 09:57:31;;;;;;;3.95;1.65;;;;;;;26.26;31.96;96862.34;4990950;28;20644;-68
2021/01/25 09:59:57;;;;;;;2.85;1.05;;;;;;;26.30;31.74;96874.25;4988969;28;20225;-69
2021/01/25 10:02:24;;;;;;;6.22;1.25;;;;;;;26.36;32.23;96868.00;4992082;28;20664;-67
2021/01/25 10:04:50;;;;;;;3.50;1.33;;;;;;;26.36;31.94;96874.19;4991024;28;20209;-70
2021/01/25 10:07:16;;;;;;;5.95;1.33;;;;;;;26.33;31.98;96879.16;4991255;28;20420;-68
2021/01/25 10:09:43;;;;;;;6.38;1.45;;;;;;;26.38;32.28;96879.31;4989009;28;20229;-68
2021/01/25 10:12:10;;;;;;;4.20;1.42;;;;;;;26.22;30.99;96878.03;4989626;28;20201;-68
2021/01/25 10:14:36;;;;;;;11.27;1.75;;;;;;;26.13;31.22;96877.53;4988940;28;20210;-69
2021/01/25 10:17:02;;;;;;;6.97;1.85;;;;;;;26.11;32.43;96884.94;4989299;28;20205;-69
2021/01/25 10:19:28;;;;;;;4.13;1.45;;;;;;;26.14;32.08;96887.19;4993577;28;20495;-67
2021/01/25 10:21:54;;;;;;;3.33;1.30;;;;;;;26.14;32.80;96892.53;4993725;28;20256;-68
2021/01/25 10:24:21;;;;;;;4.03;1.27;;;;;;;26.18;32.89;96892.91;4994487;28;20240;-67
2021/01/25 10:26:48;;;;;;;4.35;1.73;;;;;;;26.21;32.87;96904.03;4997376;28;20217;-69
2021/01/25 10:29:14;;;;;;;5.13;1.35;;;;;;;26.28;33.13;96903.94;4994071;28;20209;-69
2021/01/25 10:31:40;;;;;;;2.55;1.20;;;;;;;26.30;32.55;96907.22;4993257;28;20251;-69
2021/01/25 10:34:07;;;;;;;3.92;1.58;;;;;;;26.35;32.45;96906.56;4993241;28;20303;-67
2021/01/25 10:36:33;;;;;;;3.00;1.30;;;;;;;26.36;32.54;96905.50;4993324;28;20233;-68
2021/01/25 10:38:59;;;;;;;4.03;1.45;;;;;;;26.36;32.94;96911.69;4993188;28;20240;-68
2021/01/25 10:41:25;;;;;;;2.22;1.20;;;;;;;26.38;32.49;96919.50;4991842;28;20337;-68
2021/01/25 10:43:52;;;;;;;4.78;1.20;;;;;;;26.33;31.62;96922.84;4994795;28;20287;-66
2021/01/25 10:46:19;;;;;;;11.23;1.77;;;;;;;26.07;31.24;96931.97;4993634;28;20577;-68
2021/01/25 10:48:45;;;;;;;7.72;1.70;;;;;;;26.09;31.24;96937.91;4992903;28;20247;-68
2021/01/25 10:51:12;;;;;;;5.75;1.80;;;;;;;26.10;31.72;96931.53;4993823;28;20245;-69
2021/01/25 10:53:38;;;;;;;4.63;1.50;;;;;;;26.01;32.45;96930.16;4991579;28;20260;-68
2021/01/25 10:56:05;;;;;;;6.10;1.60;;;;;;;26.05;32.09;96936.72;4993628;28;20296;-69
2021/01/25 10:58:31;;;;;;;7.47;1.42;;;;;;;26.11;32.33;96935.03;4992505;28;20237;-67
2021/01/25 11:00:58;;;;;;;7.15;1.77;;;;;;;26.19;31.91;96938.22;4992407;28;20248;-67
2021/01/25 11:03:24;;;;;;;9.30;1.42;;;;;;;26.16;32.24;96949.41;4992408;28;20280;-68
2021/01/25 11:05:51;;;;;;;6.28;1.50;;;;;;;26.20;32.24;96945.22;4993013;28;20216;-67
2021/01/25 11:08:17;;;;;;;4.43;1.48;;;;;;;26.33;32.76;96938.09;4992984;28;20241;-69
2021/01/25 11:10:43;;;;;;;4.13;1.80;;;;;;;26.43;32.60;96935.75;4993414;28;20225;-68
2021/01/25 11:13:10;;;;;;;4.53;1.50;;;;;;;26.44;32.60;96947.28;4992712;28;20335;-69
2021/01/25 11:15:36;;;;;;;5.85;1.40;;;;;;;26.42;32.89;96946.69;4992577;28;20661;-69
2021/01/25 11:18:03;;;;;;;8.20;1.50;;;;;;;26.44;33.19;96942.72;4993680;28;20649;-67
2021/01/25 11:20:30;;;;;;;6.60;1.45;;;;;;;26.46;32.90;96943.31;4992656;28;20685;-69
2021/01/25 11:22:56;;;;;;;5.07;1.70;;;;;;;26.50;32.44;96949.88;4995051;28;20538;-69
2021/01/25 11:25:22;;;;;;;6.97;1.48;;;;;;;26.48;32.63;96956.50;4995764;28;20202;-68
2021/01/25 11:27:48;;;;;;;2.45;1.00;;;;;;;26.44;33.22;96956.13;4997935;28;20346;-69
2021/01/25 11:30:15;;;;;;;5.78;1.45;;;;;;;26.49;33.04;96958.94;4997738;28;20233;-67
2021/01/25 11:32:41;;;;;;;5.57;1.20;;;;;;;26.43;32.96;96954.50;4994082;28;20284;-70